CMB842 Details

Departure: NAS Sigonella (LICZ)
Arrival: Naval Station Rota (LERT)
Route: NELDA5U NELDA N573 BASMO M980 TBS UA31 ALR A411 MOS A44 MGA
Notes: USTRANSCOM CONTRACT FLIGHT


Current Weather Information
LICZ 200855Z 09015KT 7000 SCT015 BKN035 14/13 Q1019 RMK OVC VIS MIN 7000 WIND THR28 08013KT WIND THR10 09013KT A3011 WHT
LERT 200900Z 07006KT 040V110 CAVOK 15/07 Q1024 NOSIG